Angelina County Airport
KLFK : now visible

Aeroporto :











RITROVATECI SU...

 
LOGIN :

Iscrizione | Disclaimer

   EN    FR    IT 

 









Sommario :    VFR   VFR Marginale   IFR   IFR Intensivo   IFR Molto Intensivo
Visibilità : 
Base nubi : 
>= 8 km
>= 3000ft
5 / 8 km
1000 / 3000 ft
1500m / 5 km
500 / 1000 ft
800 / 1500m
200 / 500 ft
< 800m
< 200 ft
Simboli :   Temporali  Nebbia  Neve Forte  Precipitazioni Forti  Vento > 20 kt







- Altitudine del aeroporto : 296 ft


KLFK - Angelina County

ULTIMO METAR :
  • 201353Z AUTO 29004KT 10SM CLR 12/08 A3011 RMK AO2 SLP196 T01170078

METARs OBSOLETI :
  • 201253Z AUTO 00000KT 10SM CLR 08/08 A3008 RMK AO2 SLP185 T00830078
  • 201153Z AUTO 00000KT 10SM CLR 06/05 A3008 RMK AO2 SLP184 T00560050 10100 20050 53011

TAF KLFK
Valido dal 20 a 12 ore il 21 a 12 ore UTC


201128Z 2012/2112 VRB03KT P6SM SKC
FM201500 28005KT P6SM SKC
FM210000 VRB03KT P6SM SKC
FIR KZHU / America del Nord



MetMap, La meteo Aeronautica in un colpo d'occhio ! - Copyright ORBIFLY Dicembre 2007 - Disclaimer

ORBIFLY MET'MAP TEAM :

Programmazione e sviluppo : Alexandra Zaïnal
Concezione e sviluppo : Baudouin d'Aumeries
Co-Programmazione e sviluppo : Marc-Olivier Méhu
Supporto tecnico e logistico : Manuel Goepfert
Aiuto per la traduzione : Arnaldo La Scala

Contatto : metmap@orbifly.com




FONTI E CREDITI :

   NOAA       Earth
Advisory